Time;durP1;ratioP1;P1;durP2;ratioP2;P2;SDS_P1;SDS_P2;PMS_P1;PMS_P2;Temp;Humidity;BMP_temperature;BMP_pressure;BME280_temperature;BME280_humidity;BME280_pressure;Samples;Min_cycle;Max_cycle;Signal;HPM_P1;HPM_P2
2022/09/01 00:00:49;;;;;;;1.98;0.70;;;21.60;99.90;;;;;;4997240;28;20507;-70
2022/09/01 00:03:22;;;;;;;5.47;0.88;;;21.60;99.90;;;;;;4998360;28;20113;-69
2022/09/01 00:05:53;;;;;;;1.88;0.98;;;21.90;99.90;;;;;;4997624;28;20756;-68
2022/09/01 00:08:20;;;;;;;2.00;1.00;;;21.90;99.90;;;;;;4987551;28;20096;-68
2022/09/01 00:10:46;;;;;;;4.32;0.77;;;21.80;99.90;;;;;;4980112;28;20433;-70
2022/09/01 00:13:12;;;;;;;3.28;0.90;;;21.80;99.90;;;;;;5000501;28;20065;-69
2022/09/01 00:15:39;;;;;;;3.40;1.10;;;21.60;99.90;;;;;;4997948;28;20030;-69
2022/09/01 00:18:04;;;;;;;3.20;1.00;;;21.50;99.90;;;;;;4995804;28;20446;-69
2022/09/01 00:20:31;;;;;;;2.40;0.90;;;21.40;99.90;;;;;;4992327;28;20113;-69
2022/09/01 00:22:56;;;;;;;3.90;1.20;;;21.30;99.90;;;;;;4998600;28;20037;-68
2022/09/01 00:25:23;;;;;;;4.80;1.10;;;21.30;99.90;;;;;;4998166;28;20432;-69
2022/09/01 00:27:50;;;;;;;2.47;1.10;;;21.30;99.90;;;;;;4994056;28;20073;-69
2022/09/01 00:30:17;;;;;;;4.28;1.45;;;21.20;99.90;;;;;;4982470;28;20417;-69
2022/09/01 00:32:45;;;;;;;2.45;0.90;;;21.20;99.90;;;;;;4999270;28;20049;-69
2022/09/01 00:35:17;;;;;;;2.60;1.10;;;21.20;99.90;;;;;;4992538;28;20572;-69
2022/09/01 00:37:44;;;;;;;;;;;21.30;99.90;;;;;;4999398;28;20056;-69
2022/09/01 00:40:13;;;;;;;4.13;1.08;;;21.30;99.90;;;;;;4997997;28;19988;-69
2022/09/01 00:42:40;;;;;;;2.58;0.98;;;21.30;99.90;;;;;;4984622;28;20418;-69
2022/09/01 00:45:09;;;;;;;3.35;0.90;;;21.30;99.90;;;;;;4997709;28;20759;-69
2022/09/01 00:47:36;;;;;;;2.33;0.80;;;21.20;99.90;;;;;;5002588;28;20110;-69
2022/09/01 00:50:06;;;;;;;3.25;0.70;;;21.20;99.90;;;;;;4987678;28;20035;-69
2022/09/01 00:52:42;;;;;;;1.33;0.75;;;21.20;99.90;;;;;;4998770;28;20117;-69
2022/09/01 00:55:14;;;;;;;1.90;0.75;;;21.40;99.90;;;;;;4980368;28;20394;-70
2022/09/01 00:57:41;;;;;;;3.15;1.00;;;21.60;99.90;;;;;;4983399;28;20473;-69
2022/09/01 01:00:16;;;;;;;3.15;0.82;;;21.70;99.90;;;;;;4998384;28;20046;-70
2022/09/01 01:02:43;;;;;;;1.08;0.52;;;21.70;99.90;;;;;;4977165;28;20103;-69
2022/09/01 01:05:10;;;;;;;0.98;0.60;;;21.70;99.90;;;;;;4984773;28;20038;-70
2022/09/01 01:07:40;;;;;;;2.13;0.80;;;21.70;99.90;;;;;;4999633;28;20102;-69
2022/09/01 01:10:09;;;;;;;2.55;0.98;;;21.70;99.90;;;;;;4998070;28;20037;-69
2022/09/01 01:12:36;;;;;;;0.85;0.70;;;21.80;99.90;;;;;;5002762;28;20141;-69
2022/09/01 01:15:05;;;;;;;3.38;0.70;;;21.80;99.90;;;;;;4990882;28;20029;-69
2022/09/01 01:17:32;;;;;;;2.95;0.90;;;21.70;99.90;;;;;;5000832;28;20382;-69
2022/09/01 01:23:02;;;;;;;5.28;1.00;;;21.80;99.90;;;;;;4988452;28;20061;-69
2022/09/01 01:25:43;;;;;;;2.95;0.60;;;21.90;99.90;;;;;;4982306;28;20529;-69
2022/09/01 01:28:16;;;;;;;2.05;0.80;;;22.00;99.90;;;;;;4986169;28;20584;-69
2022/09/01 01:30:49;;;;;;;2.65;0.60;;;22.00;99.90;;;;;;4997210;28;20041;-69
2022/09/01 01:33:16;;;;;;;2.97;0.52;;;22.10;99.90;;;;;;4976595;28;20065;-69
2022/09/01 01:35:42;;;;;;;1.70;0.50;;;22.20;99.90;;;;;;5000238;28;20117;-69
2022/09/01 01:38:10;;;;;;;0.60;0.50;;;22.20;99.90;;;;;;4998092;28;20042;-69
2022/09/01 01:40:37;;;;;;;0.63;0.45;;;22.30;99.90;;;;;;4983704;28;20506;-69
2022/09/01 01:43:04;;;;;;;3.33;0.50;;;22.40;99.90;;;;;;4970558;28;20061;-69
2022/09/01 01:45:30;;;;;;;1.73;0.63;;;22.40;99.90;;;;;;5000704;28;20050;-69
2022/09/01 01:47:56;;;;;;;1.02;0.60;;;22.30;99.90;;;;;;5000252;28;20772;-70
2022/09/01 01:50:25;;;;;;;2.13;0.63;;;22.10;99.90;;;;;;4985798;28;20049;-69
2022/09/01 01:52:53;;;;;;;0.88;0.50;;;22.20;99.90;;;;;;4996679;28;20038;-71
2022/09/01 01:55:20;;;;;;;0.85;0.45;;;22.20;99.90;;;;;;5001276;28;20040;-69
2022/09/01 01:57:49;;;;;;;1.23;0.60;;;22.30;99.90;;;;;;5003120;28;20592;-69
2022/09/01 02:00:22;;;;;;;1.70;0.60;;;22.40;99.90;;;;;;4982504;28;20031;-70
2022/09/01 02:02:52;;;;;;;1.58;0.57;;;22.60;99.90;;;;;;4982948;28;20037;-69
2022/09/01 02:05:24;;;;;;;0.70;0.40;;;22.70;99.90;;;;;;4996306;28;20431;-69
2022/09/01 02:07:54;;;;;;;3.08;0.65;;;22.70;99.90;;;;;;4999863;28;20966;-69
2022/09/01 02:10:26;;;;;;;0.75;0.50;;;22.50;99.90;;;;;;4994126;28;20038;-69
2022/09/01 02:12:52;;;;;;;2.33;0.43;;;22.60;99.90;;;;;;4984928;28;20034;-69
2022/09/01 02:15:19;;;;;;;3.05;0.75;;;22.70;99.90;;;;;;4998356;28;20907;-70
2022/09/01 02:17:47;;;;;;;2.58;0.80;;;22.80;99.90;;;;;;5000501;28;20029;-69
2022/09/01 02:20:15;;;;;;;2.20;0.57;;;22.50;99.90;;;;;;4996892;28;20045;-69
2022/09/01 02:22:43;;;;;;;1.88;0.60;;;22.40;99.90;;;;;;4999935;28;20042;-69
2022/09/01 02:25:10;;;;;;;2.22;0.75;;;22.40;99.90;;;;;;4996293;28;20406;-69
2022/09/01 02:27:38;;;;;;;0.63;0.50;;;22.40;99.90;;;;;;4988066;28;20480;-69
2022/09/01 02:30:09;;;;;;;2.67;0.65;;;22.40;99.90;;;;;;4998742;28;20049;-70
2022/09/01 02:32:37;;;;;;;1.60;0.60;;;22.40;99.90;;;;;;4988269;28;20381;-69
2022/09/01 02:35:06;;;;;;;6.55;1.02;;;22.50;99.90;;;;;;4995609;28;20037;-69
2022/09/01 02:37:32;;;;;;;3.90;0.85;;;22.50;99.90;;;;;;4996562;28;20839;-68
2022/09/01 02:39:58;;;;;;;4.28;0.80;;;22.50;99.90;;;;;;4983448;28;20568;-69
2022/09/01 02:42:28;;;;;;;4.53;0.80;;;22.40;99.90;;;;;;4981940;28;20058;-69
2022/09/01 02:44:56;;;;;;;3.45;0.98;;;22.50;99.90;;;;;;4999731;28;20119;-69
2022/09/01 02:47:25;;;;;;;2.38;0.70;;;22.40;99.90;;;;;;4999560;28;20030;-70
2022/09/01 02:49:52;;;;;;;3.92;0.70;;;22.40;99.90;;;;;;4996404;28;20034;-70
2022/09/01 02:52:21;;;;;;;1.88;0.70;;;22.40;99.90;;;;;;4982413;28;20030;-70
2022/09/01 02:54:48;;;;;;;4.65;0.93;;;22.30;99.90;;;;;;4999115;28;20039;-70
2022/09/01 02:57:15;;;;;;;1.17;0.68;;;22.30;99.90;;;;;;4980164;28;20116;-69
2022/09/01 02:59:42;;;;;;;1.05;0.70;;;22.20;99.90;;;;;;4988649;28;20033;-70
2022/09/01 03:02:08;;;;;;;3.58;0.80;;;22.10;99.90;;;;;;5000744;28;20038;-69
2022/09/01 03:04:35;;;;;;;2.03;0.75;;;22.20;99.90;;;;;;5001973;28;20032;-70
2022/09/01 03:07:03;;;;;;;1.45;0.80;;;22.10;99.90;;;;;;4984375;28;20026;-70
2022/09/01 03:09:31;;;;;;;2.08;0.70;;;22.00;99.90;;;;;;4985099;28;20100;-70
2022/09/01 03:11:57;;;;;;;3.33;0.80;;;21.90;99.90;;;;;;4978441;28;20061;-70
2022/09/01 03:14:23;;;;;;;2.58;0.68;;;21.90;99.90;;;;;;4984913;28;20120;-70
2022/09/01 03:16:49;;;;;;;2.72;0.70;;;21.90;99.90;;;;;;4996458;28;20429;-70
2022/09/01 03:19:16;;;;;;;1.27;0.88;;;21.90;99.90;;;;;;5000565;28;20038;-70
2022/09/01 03:21:43;;;;;;;1.70;0.85;;;21.80;99.90;;;;;;4986397;28;20073;-69
2022/09/01 03:24:13;;;;;;;3.40;1.00;;;21.80;99.90;;;;;;4995472;28;20030;-70
2022/09/01 03:26:41;;;;;;;2.70;0.95;;;21.80;99.90;;;;;;4983805;28;20038;-69
2022/09/01 03:29:07;;;;;;;2.70;0.90;;;21.80;99.90;;;;;;4995281;28;20045;-69
2022/09/01 03:31:34;;;;;;;1.20;0.80;;;21.80;99.90;;;;;;4996717;28;20393;-69
2022/09/01 03:34:02;;;;;;;4.53;0.93;;;21.70;99.90;;;;;;4979245;28;20041;-69
2022/09/01 03:36:29;;;;;;;2.40;1.05;;;21.70;99.90;;;;;;4996583;28;20045;-69
2022/09/01 03:38:56;;;;;;;1.42;0.80;;;21.60;99.90;;;;;;4988192;28;20362;-69
2022/09/01 03:41:27;;;;;;;2.08;0.75;;;21.50;99.90;;;;;;4995654;28;20030;-69
2022/09/01 03:43:57;;;;;;;2.40;1.00;;;21.50;99.90;;;;;;4996124;28;20583;-69
2022/09/01 03:46:24;;;;;;;2.85;0.90;;;21.50;99.90;;;;;;4994365;28;20061;-69
2022/09/01 03:48:57;;;;;;;3.58;1.20;;;21.50;99.90;;;;;;4998635;28;20034;-70
2022/09/01 03:51:24;;;;;;;2.97;0.80;;;21.50;99.90;;;;;;4978792;28;20034;-69
2022/09/01 03:53:53;;;;;;;2.92;0.98;;;21.50;99.90;;;;;;4998121;28;20037;-69
2022/09/01 03:56:20;;;;;;;2.08;0.80;;;21.60;99.90;;;;;;4996732;28;20034;-69
2022/09/01 03:58:47;;;;;;;3.15;1.02;;;21.60;99.90;;;;;;4999906;28;20038;-69
2022/09/01 04:01:13;;;;;;;2.88;0.90;;;21.50;99.90;;;;;;5000469;28;20026;-69
2022/09/01 04:03:41;;;;;;;3.13;0.90;;;21.50;99.90;;;;;;5004137;28;20057;-69
2022/09/01 04:06:08;;;;;;;1.70;0.88;;;21.60;99.90;;;;;;4982777;28;20033;-69
2022/09/01 04:08:35;;;;;;;3.22;0.85;;;21.60;99.90;;;;;;5002561;28;20045;-69
2022/09/01 04:11:08;;;;;;;3.13;0.80;;;21.50;99.90;;;;;;4986197;28;20027;-70
2022/09/01 04:13:36;;;;;;;4.50;1.00;;;21.50;99.90;;;;;;5002552;28;20571;-70
2022/09/01 04:16:09;;;;;;;2.17;0.95;;;21.40;99.90;;;;;;5000187;28;20055;-70
2022/09/01 04:18:35;;;;;;;;;;;21.40;99.90;;;;;;4983790;28;20030;-70
2022/09/01 04:21:01;;;;;;;3.28;0.98;;;21.50;99.90;;;;;;4984288;28;20008;-69
2022/09/01 04:23:30;;;;;;;3.42;1.00;;;21.50;99.90;;;;;;4983933;28;20038;-69
2022/09/01 04:26:19;;;;;;;3.78;0.82;;;21.50;99.90;;;;;;5000097;28;20038;-69
2022/09/01 04:28:49;;;;;;;1.65;0.80;;;21.50;99.90;;;;;;4984357;28;20046;-69
2022/09/01 04:31:18;;;;;;;1.73;0.75;;;21.50;99.90;;;;;;4982561;28;20030;-70
2022/09/01 04:33:51;;;;;;;2.15;0.82;;;21.50;99.90;;;;;;5003637;28;20042;-69
2022/09/01 04:36:24;;;;;;;3.95;1.02;;;21.40;99.90;;;;;;5000856;28;20031;-69
2022/09/01 04:38:59;;;;;;;3.70;1.02;;;21.40;99.90;;;;;;4998801;28;20061;-69
2022/09/01 04:41:30;;;;;;;4.53;0.98;;;21.40;99.90;;;;;;4987989;28;20030;-69
2022/09/01 04:43:58;;;;;;;3.87;1.10;;;21.30;99.90;;;;;;5001596;28;20030;-69
2022/09/01 04:46:30;;;;;;;2.58;0.98;;;21.30;99.90;;;;;;4999348;28;20030;-68
2022/09/01 04:48:56;;;;;;;2.05;1.05;;;21.30;99.90;;;;;;4981743;28;20385;-69
2022/09/01 04:51:26;;;;;;;3.50;0.98;;;21.20;99.90;;;;;;4998424;28;20087;-70
2022/09/01 04:53:56;;;;;;;3.15;1.10;;;21.20;99.90;;;;;;5001167;28;20030;-69
2022/09/01 04:56:24;;;;;;;1.77;0.80;;;21.20;99.90;;;;;;4997613;28;20034;-69
2022/09/01 04:58:52;;;;;;;2.92;1.02;;;21.20;99.90;;;;;;4980734;28;20042;-70
2022/09/01 05:01:22;;;;;;;3.38;1.23;;;21.20;99.90;;;;;;4999589;28;20034;-69
2022/09/01 05:03:55;;;;;;;3.72;1.15;;;21.20;99.90;;;;;;5000440;28;20061;-69
2022/09/01 05:06:21;;;;;;;4.95;1.23;;;21.30;99.90;;;;;;5002551;28;20035;-69
2022/09/01 05:08:48;;;;;;;5.35;1.15;;;21.30;99.90;;;;;;4997213;28;20077;-69
2022/09/01 05:11:18;;;;;;;3.63;1.05;;;21.30;99.90;;;;;;4987265;28;20097;-69
2022/09/01 05:13:47;;;;;;;2.53;1.30;;;21.40;99.90;;;;;;5005375;28;20026;-69
2022/09/01 05:16:18;;;;;;;4.78;1.08;;;21.40;99.90;;;;;;5002261;28;20378;-69
2022/09/01 05:18:46;;;;;;;2.65;1.25;;;21.40;99.90;;;;;;4986012;28;20030;-69
2022/09/01 05:21:15;;;;;;;4.65;1.30;;;21.40;99.90;;;;;;5001731;28;20100;-70
2022/09/01 05:23:43;;;;;;;4.35;1.30;;;21.50;99.90;;;;;;5000564;28;20121;-69
2022/09/01 05:26:25;;;;;;;3.92;1.20;;;21.50;99.90;;;;;;4982554;28;20453;-70
2022/09/01 05:28:57;;;;;;;3.83;1.25;;;21.50;99.90;;;;;;4997815;28;20033;-70
2022/09/01 05:31:26;;;;;;;2.90;1.15;;;21.50;99.90;;;;;;4980586;28;20037;-69
2022/09/01 05:33:53;;;;;;;5.43;1.15;;;21.50;99.90;;;;;;4989544;28;20077;-70
2022/09/01 05:36:21;;;;;;;4.18;1.40;;;21.60;99.90;;;;;;5004039;28;20058;-70
2022/09/01 05:38:49;;;;;;;4.00;1.40;;;21.60;99.90;;;;;;5001371;28;20097;-69
2022/09/01 05:41:19;;;;;;;3.00;1.30;;;21.60;99.90;;;;;;4990436;28;20060;-70
2022/09/01 05:43:52;;;;;;;4.90;1.30;;;21.60;99.90;;;;;;4989367;28;20061;-70
2022/09/01 05:46:22;;;;;;;3.95;1.08;;;21.60;99.90;;;;;;4998501;28;20097;-69
2022/09/01 05:48:50;;;;;;;2.53;1.25;;;21.60;99.90;;;;;;4998952;28;20038;-70
2022/09/01 05:51:20;;;;;;;2.83;1.30;;;21.70;99.90;;;;;;4978597;28;20118;-70
2022/09/01 05:53:50;;;;;;;4.00;1.30;;;21.90;99.90;;;;;;4981767;28;20030;-69
2022/09/01 05:56:18;;;;;;;4.22;1.48;;;22.00;99.90;;;;;;4976504;28;20389;-69
2022/09/01 05:58:46;;;;;;;5.03;1.20;;;22.00;99.90;;;;;;5004905;28;20034;-69
2022/09/01 06:01:20;;;;;;;6.20;1.60;;;22.20;99.90;;;;;;4996619;28;20061;-70
2022/09/01 06:03:53;;;;;;;3.88;1.55;;;22.10;99.90;;;;;;4986253;28;20117;-69
2022/09/01 06:06:24;;;;;;;3.83;1.42;;;22.20;99.90;;;;;;4981592;28;20033;-69
2022/09/01 06:08:51;;;;;;;3.33;1.67;;;22.20;99.90;;;;;;4987309;28;20113;-70
2022/09/01 06:11:18;;;;;;;5.95;1.65;;;22.20;99.90;;;;;;4982406;28;20592;-71
2022/09/01 06:13:46;;;;;;;6.80;1.73;;;22.20;99.90;;;;;;4999287;28;20026;-70
2022/09/01 06:16:15;;;;;;;3.85;1.63;;;22.30;99.90;;;;;;4981844;28;20034;-69
2022/09/01 06:18:42;;;;;;;4.68;1.95;;;22.30;99.90;;;;;;4997931;28;20937;-69
2022/09/01 06:21:10;;;;;;;5.05;1.70;;;22.40;99.90;;;;;;4997455;28;20037;-70
2022/09/01 06:23:36;;;;;;;4.45;1.90;;;22.40;99.90;;;;;;4986553;28;20374;-70
2022/09/01 06:26:07;;;;;;;5.18;1.67;;;22.50;99.90;;;;;;4996431;28;20561;-70
2022/09/01 06:28:33;;;;;;;4.22;1.98;;;22.50;99.90;;;;;;4997076;28;20026;-71
2022/09/01 06:31:04;;;;;;;5.85;1.60;;;22.60;99.90;;;;;;4983345;28;20505;-69
2022/09/01 06:33:31;;;;;;;3.60;1.40;;;22.70;99.90;;;;;;4995992;28;20034;-69
2022/09/01 06:36:02;;;;;;;3.42;1.65;;;22.70;99.90;;;;;;5000440;28;20022;-70
2022/09/01 06:38:29;;;;;;;4.20;1.43;;;22.80;99.90;;;;;;4979024;28;20034;-70
2022/09/01 06:41:03;;;;;;;5.60;1.70;;;22.80;99.90;;;;;;4996619;28;20259;-71
2022/09/01 06:43:29;;;;;;;6.45;1.65;;;22.90;99.90;;;;;;5003877;28;20053;-71
2022/09/01 06:45:56;;;;;;;6.18;1.80;;;23.00;99.90;;;;;;5001645;28;20027;-70
2022/09/01 06:48:22;;;;;;;5.47;1.70;;;23.10;99.90;;;;;;4999980;28;20540;-70
2022/09/01 06:50:48;;;;;;;6.88;1.60;;;23.10;99.90;;;;;;5003060;28;20466;-69
2022/09/01 06:53:17;;;;;;;5.45;1.80;;;23.20;99.90;;;;;;4995816;28;20045;-69
2022/09/01 06:55:46;;;;;;;5.15;2.13;;;23.20;99.90;;;;;;4996427;28;20408;-70
2022/09/01 06:58:14;;;;;;;6.28;1.80;;;23.40;99.90;;;;;;4988795;28;20073;-70
2022/09/01 07:00:41;;;;;;;6.97;1.77;;;23.40;99.90;;;;;;4990986;28;20034;-70
2022/09/01 07:03:09;;;;;;;7.72;1.67;;;23.50;99.90;;;;;;4986841;28;20117;-70
2022/09/01 07:05:50;;;;;;;8.70;1.90;;;23.50;99.90;;;;;;4980493;28;20030;-72
2022/09/01 07:08:20;;;;;;;5.03;1.50;;;23.60;99.90;;;;;;4981181;28;20042;-69
2022/09/01 07:10:49;;;;;;;6.15;1.45;;;23.60;99.90;;;;;;4981791;28;20034;-70
2022/09/01 07:13:23;;;;;;;4.72;1.73;;;23.80;99.90;;;;;;4976797;28;20041;-71
2022/09/01 07:15:51;;;;;;;7.40;1.75;;;23.90;99.90;;;;;;4998339;28;20030;-69
2022/09/01 07:18:20;;;;;;;6.43;1.90;;;24.10;99.90;;;;;;4997955;28;20057;-70
2022/09/01 07:20:47;;;;;;;4.50;1.77;;;24.10;99.90;;;;;;4998141;28;20033;-71
2022/09/01 07:23:15;;;;;;;5.45;1.50;;;24.20;99.90;;;;;;4980883;28;20038;-70
2022/09/01 07:25:42;;;;;;;5.10;1.70;;;24.20;99.90;;;;;;4979100;28;20079;-70
2022/09/01 07:28:09;;;;;;;6.20;1.70;;;24.20;99.90;;;;;;4979099;28;20513;-70
2022/09/01 07:30:42;;;;;;;6.03;1.50;;;24.30;99.90;;;;;;4984385;28;20034;-70
2022/09/01 07:33:10;;;;;;;6.78;1.92;;;24.30;99.90;;;;;;4999562;28;20056;-70
2022/09/01 07:35:38;;;;;;;5.07;1.38;;;24.40;99.90;;;;;;4998680;28;20045;-70
2022/09/01 07:38:08;;;;;;;3.80;1.60;;;24.50;99.90;;;;;;4997079;28;20053;-70
2022/09/01 07:40:37;;;;;;;4.40;1.63;;;24.60;99.90;;;;;;4999930;28;20038;-69
2022/09/01 07:43:16;;;;;;;4.38;1.80;;;24.70;99.90;;;;;;4989455;28;20043;-70
2022/09/01 07:45:47;;;;;;;5.53;1.58;;;24.70;99.90;;;;;;4986907;28;20040;-70
2022/09/01 07:48:21;;;;;;;2.75;1.40;;;24.80;99.90;;;;;;5003600;28;20557;-69
2022/09/01 07:50:51;;;;;;;2.25;1.23;;;24.90;99.90;;;;;;4993485;28;20025;-70
2022/09/01 07:53:21;;;;;;;3.05;1.20;;;25.00;99.90;;;;;;4982755;28;20030;-70
2022/09/01 07:55:51;;;;;;;5.10;1.30;;;25.10;99.90;;;;;;4991480;28;20045;-70
2022/09/01 07:58:19;;;;;;;2.75;1.42;;;25.20;99.90;;;;;;4988852;28;20038;-70
2022/09/01 08:00:46;;;;;;;4.72;1.42;;;25.30;99.90;;;;;;5001838;28;20026;-69
2022/09/01 08:03:13;;;;;;;5.43;1.20;;;25.30;99.90;;;;;;4987490;28;20038;-69
2022/09/01 08:05:39;;;;;;;3.83;1.48;;;25.40;99.90;;;;;;4982951;28;20061;-70
2022/09/01 08:08:05;;;;;;;5.53;1.50;;;25.50;99.90;;;;;;4989127;28;20062;-70
2022/09/01 08:10:32;;;;;;;4.45;1.40;;;25.60;99.90;;;;;;4979849;28;20035;-69
2022/09/01 08:12:58;;;;;;;2.88;1.58;;;25.70;99.90;;;;;;5000486;28;20035;-70
2022/09/01 08:15:25;;;;;;;2.90;1.42;;;25.90;99.90;;;;;;5003090;28;20049;-70
2022/09/01 08:17:51;;;;;;;2.40;1.15;;;26.00;99.90;;;;;;4997471;28;20042;-70
2022/09/01 08:20:17;;;;;;;4.18;1.38;;;26.10;99.90;;;;;;4999604;28;20046;-70
2022/09/01 08:22:43;;;;;;;3.17;1.25;;;26.20;99.90;;;;;;5002107;28;20090;-70
2022/09/01 08:25:10;;;;;;;6.18;1.40;;;26.30;99.90;;;;;;5001138;28;20513;-69
2022/09/01 08:27:40;;;;;;;3.55;1.50;;;26.30;99.90;;;;;;4987168;28;20187;-70
2022/09/01 08:30:09;;;;;;;3.63;1.50;;;26.40;99.90;;;;;;5002333;28;20045;-70
2022/09/01 08:32:36;;;;;;;3.53;1.40;;;26.80;99.90;;;;;;5004712;28;20029;-70
2022/09/01 08:35:04;;;;;;;4.22;1.50;;;28.50;99.90;;;;;;4998811;28;20340;-70
2022/09/01 08:37:31;;;;;;;9.55;2.17;;;29.60;99.90;;;;;;4999253;28;20113;-70
2022/09/01 08:39:57;;;;;;;5.15;1.92;;;30.40;98.80;;;;;;5003332;28;20042;-70
2022/09/01 08:42:52;;;;;;;5.43;1.92;;;31.10;97.70;;;;;;5001983;28;20042;-70
2022/09/01 08:45:28;;;;;;;7.45;2.03;;;31.80;96.50;;;;;;5000543;28;20351;-70
2022/09/01 08:47:59;;;;;;;2.65;1.75;;;31.40;96.10;;;;;;4999915;28;20034;-70
2022/09/01 08:50:25;;;;;;;4.85;1.90;;;31.40;95.90;;;;;;4997830;28;20027;-69
2022/09/01 08:53:37;;;;;;;7.15;2.10;;;31.90;95.70;;;;;;5002117;28;20080;-72
2022/09/01 08:56:04;;;;;;;5.25;2.05;;;31.90;96.00;;;;;;4982135;28;20045;-70
2022/09/01 08:58:31;;;;;;;6.93;2.20;;;31.90;96.20;;;;;;5000520;28;20050;-70
2022/09/01 09:01:18;;;;;;;7.22;2.05;;;31.30;96.30;;;;;;4995361;28;20065;-70
2022/09/01 09:03:59;;;;;;;6.00;1.77;;;31.30;96.70;;;;;;4996310;28;20041;-70
2022/09/01 09:06:58;;;;;;;4.70;1.75;;;31.10;96.30;;;;;;4981681;28;20108;-70
2022/09/01 09:09:40;;;;;;;6.88;2.10;;;31.50;96.50;;;;;;4993061;28;20034;-70
2022/09/01 09:12:28;;;;;;;9.43;2.22;;;32.30;95.90;;;;;;4994116;28;20446;-70
2022/09/01 09:15:05;;;;;;;6.53;2.13;;;32.30;95.90;;;;;;4994634;28;20057;-70
2022/09/01 09:17:42;;;;;;;6.40;2.00;;;32.70;95.60;;;;;;4996868;28;20555;-70
2022/09/01 09:20:10;;;;;;;7.00;2.50;;;31.70;95.60;;;;;;4995206;28;20053;-70
2022/09/01 09:22:36;;;;;;;6.47;2.30;;;32.30;95.80;;;;;;4984017;28;20037;-70
2022/09/01 09:25:13;;;;;;;5.78;1.98;;;32.60;95.70;;;;;;4997111;28;20042;-70
2022/09/01 09:27:50;;;;;;;10.43;3.13;;;32.10;95.40;;;;;;4998223;28;20052;-70
2022/09/01 09:30:27;;;;;;;9.20;2.45;;;32.30;95.70;;;;;;4978043;28;20049;-70
2022/09/01 09:33:06;;;;;;;4.63;2.25;;;31.50;96.10;;;;;;4999555;28;20049;-71
2022/09/01 09:35:42;;;;;;;9.70;2.22;;;30.20;97.40;;;;;;4998087;28;20497;-71
2022/09/01 09:38:22;;;;;;;5.88;2.40;;;31.40;96.80;;;;;;4981098;28;20034;-70
2022/09/01 09:41:02;;;;;;;6.50;2.10;;;32.20;96.10;;;;;;4998068;28;20069;-70
2022/09/01 09:43:32;;;;;;;5.10;2.13;;;32.50;95.90;;;;;;4995283;28;20477;-70
2022/09/01 09:46:22;;;;;;;4.10;2.35;;;32.00;95.80;;;;;;4995752;28;20038;-70
2022/09/01 09:49:04;;;;;;;6.28;2.50;;;31.60;96.10;;;;;;4996793;28;20049;-70
2022/09/01 09:51:30;;;;;;;7.30;2.40;;;31.20;97.00;;;;;;4981432;28;20045;-69
2022/09/01 09:54:12;;;;;;;5.63;2.22;;;31.10;97.00;;;;;;4994961;28;20363;-70
2022/09/01 09:56:40;;;;;;;;;;;32.30;96.40;;;;;;4979338;28;20125;-70
2022/09/01 09:59:27;;;;;;;8.70;2.40;;;32.80;95.80;;;;;;4999171;28;19925;-70
2022/09/01 10:01:57;;;;;;;5.95;2.38;;;33.30;95.40;;;;;;4981362;28;20561;-71
2022/09/01 10:04:36;;;;;;;7.97;2.20;;;33.10;95.00;;;;;;4976341;28;20567;-72
2022/09/01 10:07:41;;;;;;;7.07;2.60;;;33.30;94.80;;;;;;4978476;28;20145;-70
2022/09/01 10:10:35;;;;;;;8.20;2.63;;;33.30;94.60;;;;;;4993557;28;20046;-72
2022/09/01 10:13:01;;;;;;;6.28;2.55;;;33.20;94.60;;;;;;4982758;28;20556;-70
2022/09/01 10:15:37;;;;;;;8.93;2.78;;;32.30;95.50;;;;;;5084947;27;20406;-72
2022/09/01 10:18:17;;;;;;;5.00;2.17;;;30.80;96.50;;;;;;5074436;28;20033;-69
2022/09/01 10:20:59;;;;;;;6.80;2.85;;;29.80;96.70;;;;;;5068609;28;20040;-68
2022/09/01 10:23:26;;;;;;;5.88;2.40;;;29.50;98.20;;;;;;5054356;28;20033;-69
2022/09/01 10:26:00;;;;;;;7.03;2.42;;;29.90;98.40;;;;;;5056224;28;20037;-68
2022/09/01 10:28:28;;;;;;;6.90;2.47;;;29.70;99.50;;;;;;5066427;28;20773;-70
2022/09/01 10:30:55;;;;;;;5.50;2.50;;;29.90;99.00;;;;;;5054863;28;20035;-68
2022/09/01 10:33:22;;;;;;;6.72;2.85;;;29.60;98.60;;;;;;5068579;28;20032;-69
2022/09/01 10:35:51;;;;;;;7.65;2.60;;;30.00;99.10;;;;;;5058109;28;20033;-68
2022/09/01 10:38:23;;;;;;;5.40;2.38;;;30.60;99.00;;;;;;5054591;28;20053;-68
2022/09/01 10:41:06;;;;;;;7.30;2.75;;;31.00;98.60;;;;;;5055710;28;20115;-69
2022/09/01 10:43:43;;;;;;;9.27;2.45;;;31.00;98.80;;;;;;5049826;28;20113;-69
2022/09/01 10:46:25;;;;;;;7.22;2.55;;;30.90;98.10;;;;;;5063422;28;20033;-69
2022/09/01 10:48:52;;;;;;;6.25;2.70;;;31.30;98.30;;;;;;5055689;28;20602;-68
2022/09/01 10:51:18;;;;;;;6.28;2.17;;;31.50;97.80;;;;;;5051808;27;20044;-69
2022/09/01 10:53:51;;;;;;;7.57;2.53;;;30.40;98.00;;;;;;5083711;28;20204;-68
2022/09/01 10:56:36;;;;;;;7.20;2.40;;;30.20;98.40;;;;;;5050092;28;20037;-68
2022/09/01 10:59:26;;;;;;;6.35;2.28;;;31.10;98.90;;;;;;5051356;28;20028;-69
2022/09/01 11:01:52;;;;;;;5.28;2.20;;;31.20;98.40;;;;;;5058671;28;20033;-69
2022/09/01 11:04:30;;;;;;;7.32;2.38;;;31.40;97.50;;;;;;5067556;28;20422;-70
2022/09/01 11:07:00;;;;;;;5.22;2.90;;;31.20;96.60;;;;;;5062394;28;20522;-68
2022/09/01 11:09:37;;;;;;;5.68;2.40;;;30.80;98.00;;;;;;5088625;28;20036;-67
2022/09/01 11:12:32;;;;;;;4.90;2.83;;;31.50;98.00;;;;;;5059234;28;20045;-69
2022/09/01 11:15:01;;;;;;;8.30;3.00;;;31.90;97.00;;;;;;5064495;28;20038;-68
2022/09/01 11:17:52;;;;;;;10.43;2.97;;;32.40;96.70;;;;;;5055411;28;20044;-69
2022/09/01 11:20:27;;;;;;;5.50;2.50;;;32.10;96.00;;;;;;5053002;28;20064;-68
2022/09/01 11:22:56;;;;;;;3.90;2.08;;;32.40;96.20;;;;;;5053021;28;20043;-69
2022/09/01 11:25:34;;;;;;;4.40;2.33;;;32.80;96.10;;;;;;5052263;28;20041;-68
2022/09/01 11:28:31;;;;;;;9.90;2.70;;;31.50;97.40;;;;;;5047241;28;20059;-68
2022/09/01 11:30:57;;;;;;;6.80;2.83;;;31.60;97.60;;;;;;5044765;28;20052;-69
2022/09/01 11:33:42;;;;;;;6.78;2.83;;;31.70;97.00;;;;;;5035965;28;20045;-69
2022/09/01 11:36:33;;;;;;;4.80;2.45;;;31.90;97.50;;;;;;5042604;28;20036;-69
2022/09/01 11:39:35;;;;;;;5.60;2.67;;;31.30;98.80;;;;;;5032113;28;20033;-68
2022/09/01 11:42:08;;;;;;;6.13;2.78;;;32.00;98.00;;;;;;5063624;28;20062;-68
2022/09/01 11:44:52;;;;;;;4.90;3.03;;;32.10;98.30;;;;;;5036504;28;20029;-68
2022/09/01 11:47:54;;;;;;;6.10;2.85;;;30.50;99.80;;;;;;5048929;28;20030;-68
2022/09/01 11:50:32;;;;;;;5.65;3.17;;;30.30;99.90;;;;;;5021059;28;20048;-69
2022/09/01 11:53:09;;;;;;;6.28;2.83;;;30.70;99.90;;;;;;5037211;28;20041;-68
2022/09/01 11:55:39;;;;;;;15.68;3.40;;;30.00;99.90;;;;;;5054447;28;20127;-68
2022/09/01 11:58:10;;;;;;;7.07;2.90;;;30.20;99.90;;;;;;5038240;28;20060;-68
2022/09/01 12:00:39;;;;;;;5.30;2.70;;;30.80;99.90;;;;;;5042025;28;20577;-68
2022/09/01 12:03:22;;;;;;;7.93;3.20;;;31.70;99.10;;;;;;5038447;28;20132;-70
2022/09/01 12:05:58;;;;;;;5.65;2.85;;;31.80;99.30;;;;;;5043322;28;20040;-71
2022/09/01 12:08:26;;;;;;;5.20;2.80;;;32.40;98.60;;;;;;5037600;28;20049;-71
2022/09/01 12:11:17;;;;;;;7.85;3.28;;;32.60;98.30;;;;;;5040808;28;20052;-70
2022/09/01 12:14:03;;;;;;;6.60;3.67;;;32.30;98.80;;;;;;5048151;28;20059;-71
2022/09/01 12:16:33;;;;;;;12.45;3.50;;;33.20;97.90;;;;;;5057831;28;20036;-71
2022/09/01 12:18:59;;;;;;;7.40;3.45;;;32.80;97.90;;;;;;5068340;28;20540;-71
2022/09/01 12:21:29;;;;;;;5.60;3.45;;;32.40;98.10;;;;;;5081968;28;20025;-71
2022/09/01 12:24:16;;;;;;;7.65;3.25;;;31.50;99.70;;;;;;5048189;28;20518;-71
2022/09/01 12:26:43;;;;;;;6.07;3.08;;;32.20;99.30;;;;;;5056838;28;20498;-71
2022/09/01 12:29:12;;;;;;;6.18;3.00;;;31.50;99.90;;;;;;5040177;28;20028;-71
2022/09/01 12:31:45;;;;;;;7.72;3.03;;;30.90;99.90;;;;;;5051407;28;20061;-72
2022/09/01 12:34:32;;;;;;;5.32;2.70;;;31.70;99.90;;;;;;5069500;28;20061;-71
2022/09/01 12:37:13;;;;;;;5.78;2.63;;;32.30;99.40;;;;;;5046990;28;20083;-71
2022/09/01 12:39:40;;;;;;;5.07;2.97;;;32.70;98.00;;;;;;5049628;28;20044;-71
2022/09/01 12:42:28;;;;;;;9.13;3.25;;;33.00;98.40;;;;;;5054387;28;20283;-71
2022/09/01 12:45:12;;;;;;;5.03;2.80;;;32.00;98.80;;;;;;5043058;28;20021;-70
2022/09/01 12:47:39;;;;;;;4.75;3.10;;;32.90;98.70;;;;;;5065072;28;20683;-70
2022/09/01 12:50:08;;;;;;;7.35;3.25;;;32.70;99.00;;;;;;5041365;28;20136;-70
2022/09/01 12:52:43;;;;;;;8.05;3.03;;;32.60;99.90;;;;;;5080460;28;20037;-72
2022/09/01 12:55:18;;;;;;;10.93;3.15;;;33.10;98.80;;;;;;5079770;28;20047;-70
2022/09/01 12:57:56;;;;;;;4.55;3.33;;;32.30;98.80;;;;;;5048875;28;20036;-70
2022/09/01 13:00:25;;;;;;;6.15;3.05;;;32.60;98.60;;;;;;5052594;28;20048;-71
2022/09/01 13:02:54;;;;;;;6.32;3.45;;;32.10;98.40;;;;;;5048583;28;20472;-71
2022/09/01 13:05:32;;;;;;;6.07;3.38;;;32.00;99.00;;;;;;5075698;28;20039;-71
2022/09/01 13:08:05;;;;;;;5.22;3.25;;;32.80;98.60;;;;;;5086720;28;20596;-71
2022/09/01 13:10:38;;;;;;;5.90;3.53;;;32.90;97.90;;;;;;5059866;28;20034;-70
2022/09/01 13:13:08;;;;;;;6.20;3.10;;;31.90;98.70;;;;;;5083700;28;20048;-71